Time;durP1;ratioP1;P1;durP2;ratioP2;P2;SDS_P1;SDS_P2;PMS_P1;PMS_P2;Temp;Humidity;BMP_temperature;BMP_pressure;BME280_temperature;BME280_humidity;BME280_pressure;Samples;Min_cycle;Max_cycle;Signal;HPM_P1;HPM_P2
2021/10/07 00:00:49;;;;;;;6.40;3.83;;;10.40;98.10;;;;;;4171969;28;20041;-72
2021/10/07 00:02:51;;;;;;;10.33;3.43;;;10.40;98.20;;;;;;4171977;28;20067;-64
2021/10/07 00:04:52;;;;;;;7.30;3.73;;;10.40;98.30;;;;;;4158671;28;20021;-71
2021/10/07 00:06:53;;;;;;;7.50;4.07;;;10.40;98.40;;;;;;4156440;28;20044;-64
2021/10/07 00:08:54;;;;;;;9.13;4.30;;;10.40;98.50;;;;;;4156751;28;20098;-65
2021/10/07 00:10:55;;;;;;;7.10;3.60;;;10.40;98.50;;;;;;4156868;28;20037;-65
2021/10/07 00:12:56;;;;;;;9.87;4.70;;;10.40;98.60;;;;;;4155932;28;20087;-63
2021/10/07 00:14:57;;;;;;;8.20;4.10;;;10.40;98.60;;;;;;4165702;28;20609;-64
2021/10/07 00:16:59;;;;;;;7.47;4.07;;;10.40;98.60;;;;;;4159969;28;20037;-66
2021/10/07 00:19:00;;;;;;;7.50;4.17;;;10.40;98.70;;;;;;4172394;28;20049;-66
2021/10/07 00:21:01;;;;;;;7.70;4.03;;;10.40;98.80;;;;;;4170004;28;20025;-64
2021/10/07 00:23:02;;;;;;;5.70;3.73;;;10.50;98.80;;;;;;4172627;28;20806;-64
2021/10/07 00:25:04;;;;;;;6.70;4.27;;;10.40;98.90;;;;;;4162257;28;20025;-69
2021/10/07 00:27:05;;;;;;;11.67;4.00;;;10.40;98.80;;;;;;4156937;28;20037;-69
2021/10/07 00:31:32;;;;;;;22.17;4.23;;;10.40;99.00;;;;;;4169086;28;20048;-66
2021/10/07 00:33:43;;;;;;;6.50;3.80;;;10.40;99.20;;;;;;4159961;28;20067;-65
2021/10/07 00:36:02;;;;;;;7.80;4.40;;;10.40;99.30;;;;;;4156783;28;20037;-69
2021/10/07 00:40:24;;;;;;;;;;;10.40;99.50;;;;;;4160643;28;20033;-64
2021/10/07 00:42:25;;;;;;;9.97;3.90;;;10.40;99.90;;;;;;4172061;28;20430;-68
2021/10/07 00:44:31;;;;;;;6.90;4.03;;;10.30;99.90;;;;;;4173738;28;20110;-71
2021/10/07 00:46:50;;;;;;;8.57;4.33;;;10.30;99.90;;;;;;4170299;28;20083;-68
2021/10/07 00:48:51;;;;;;;5.93;4.30;;;10.30;99.90;;;;;;4159186;28;20041;-66
2021/10/07 00:50:52;;;;;;;7.23;3.90;;;10.40;99.90;;;;;;4167124;28;20083;-73
2021/10/07 00:52:53;;;;;;;6.50;3.73;;;10.40;99.90;;;;;;4173242;28;20040;-71
2021/10/07 00:54:55;;;;;;;11.17;4.37;;;10.30;99.90;;;;;;4157109;28;20063;-67
2021/10/07 00:56:57;;;;;;;8.87;3.93;;;10.40;99.90;;;;;;4156430;28;20033;-65
2021/10/07 00:58:58;;;;;;;6.70;3.70;;;10.40;99.90;;;;;;4155087;28;20033;-64
2021/10/07 01:00:59;;;;;;;10.40;4.40;;;10.40;99.90;;;;;;4162158;28;20408;-69
2021/10/07 01:03:00;;;;;;;12.20;5.13;;;10.40;99.90;;;;;;4172040;28;20025;-63
2021/10/07 01:05:02;;;;;;;6.27;3.80;;;10.40;99.90;;;;;;4162035;28;20029;-68
2021/10/07 01:07:05;;;;;;;5.97;3.97;;;10.40;99.90;;;;;;4156816;28;20083;-66
2021/10/07 01:09:06;;;;;;;10.00;4.17;;;10.40;99.90;;;;;;4162292;28;20037;-65
2021/10/07 01:11:08;;;;;;;7.00;3.90;;;10.40;99.90;;;;;;4158498;28;20767;-66
2021/10/07 01:13:12;;;;;;;7.20;3.83;;;10.40;99.90;;;;;;4161439;28;20029;-67
2021/10/07 01:15:14;;;;;;;6.13;4.10;;;10.40;99.90;;;;;;4156843;28;20803;-66
2021/10/07 01:17:17;;;;;;;6.97;4.10;;;10.40;99.90;;;;;;4155915;28;20083;-64
2021/10/07 01:19:18;;;;;;;7.40;3.77;;;10.40;99.90;;;;;;4171666;28;20533;-67
2021/10/07 01:21:20;;;;;;;8.53;3.80;;;10.40;99.90;;;;;;4201115;28;20044;-64
2021/10/07 01:23:21;;;;;;;7.53;3.50;;;10.40;99.90;;;;;;4172883;28;20087;-63
2021/10/07 01:25:23;;;;;;;6.00;3.80;;;10.40;99.90;;;;;;4160307;28;20028;-63
2021/10/07 01:27:26;;;;;;;7.70;4.30;;;10.40;99.90;;;;;;4172873;28;20540;-66
2021/10/07 01:29:27;;;;;;;10.03;4.47;;;10.40;99.90;;;;;;4171468;28;20118;-69
2021/10/07 01:31:28;;;;;;;7.90;4.27;;;10.30;99.90;;;;;;4169238;28;20098;-68
2021/10/07 01:33:29;;;;;;;7.47;4.43;;;10.30;99.90;;;;;;4170923;28;20021;-63
2021/10/07 01:35:30;;;;;;;8.50;3.30;;;10.30;99.90;;;;;;4171685;28;20041;-66
2021/10/07 01:37:32;;;;;;;10.30;4.50;;;10.30;99.90;;;;;;4171943;28;20036;-68
2021/10/07 01:39:33;;;;;;;10.50;3.63;;;10.30;99.90;;;;;;4170321;28;20037;-68
2021/10/07 01:41:34;;;;;;;10.33;4.70;;;10.30;99.90;;;;;;4159179;28;20654;-65
2021/10/07 01:43:35;;;;;;;6.50;3.80;;;10.30;99.90;;;;;;4161379;28;20043;-63
2021/10/07 01:45:36;;;;;;;5.83;4.43;;;10.30;99.90;;;;;;4172738;28;20040;-63
2021/10/07 01:47:38;;;;;;;9.57;4.47;;;10.30;99.90;;;;;;4163323;28;20442;-64
2021/10/07 01:49:40;;;;;;;5.53;3.90;;;10.30;99.90;;;;;;4172033;28;20087;-67
2021/10/07 01:51:41;;;;;;;8.27;3.40;;;10.30;99.90;;;;;;4160946;28;20074;-67
2021/10/07 01:53:42;;;;;;;7.27;3.47;;;10.30;99.90;;;;;;4172890;28;20033;-69
2021/10/07 01:55:43;;;;;;;6.37;3.23;;;10.30;99.90;;;;;;4166695;28;20045;-65
2021/10/07 01:57:44;;;;;;;10.77;3.90;;;10.30;99.90;;;;;;4172485;28;20094;-64
2021/10/07 01:59:45;;;;;;;6.70;3.60;;;10.30;99.90;;;;;;4171132;28;20041;-69
2021/10/07 02:01:47;;;;;;;9.00;3.97;;;10.30;99.90;;;;;;4166130;28;20029;-63
2021/10/07 02:03:48;;;;;;;7.33;3.33;;;10.30;99.90;;;;;;4172467;28;20098;-64
2021/10/07 02:05:49;;;;;;;7.47;3.23;;;10.30;99.90;;;;;;4168982;28;20452;-70
2021/10/07 02:07:50;;;;;;;10.57;3.50;;;10.40;99.90;;;;;;4158098;28;20022;-70
2021/10/07 02:09:52;;;;;;;5.97;3.43;;;10.30;99.90;;;;;;4158647;28;20079;-64
2021/10/07 02:11:53;;;;;;;6.87;3.77;;;10.30;99.90;;;;;;4159687;28;20041;-65
2021/10/07 02:13:54;;;;;;;6.17;3.87;;;10.30;99.90;;;;;;4170186;28;20040;-68
2021/10/07 02:15:55;;;;;;;9.03;3.57;;;10.40;99.90;;;;;;4175034;28;20037;-67
2021/10/07 02:17:56;;;;;;;4.97;3.20;;;10.40;99.90;;;;;;4165479;28;20033;-64
2021/10/07 02:19:57;;;;;;;8.73;3.53;;;10.40;99.90;;;;;;4159185;28;20551;-62
2021/10/07 02:21:59;;;;;;;6.00;3.23;;;10.40;99.90;;;;;;4171371;28;20037;-63
2021/10/07 02:24:00;;;;;;;6.87;3.10;;;10.40;99.90;;;;;;4167134;28;20033;-66
2021/10/07 02:26:02;;;;;;;6.27;2.93;;;10.40;99.90;;;;;;4173344;28;20459;-63
2021/10/07 02:28:03;;;;;;;5.27;3.17;;;10.40;99.90;;;;;;4175611;28;20075;-67
2021/10/07 02:30:10;;;;;;;7.67;3.47;;;10.40;99.90;;;;;;4173442;28;20115;-64
2021/10/07 02:32:13;;;;;;;8.97;3.40;;;10.40;99.90;;;;;;4175180;28;20103;-68
2021/10/07 02:34:14;;;;;;;4.50;2.93;;;10.40;99.90;;;;;;4159661;28;20079;-65
2021/10/07 02:36:16;;;;;;;7.13;3.30;;;10.40;99.90;;;;;;4158438;28;20033;-65
2021/10/07 02:38:17;;;;;;;7.37;3.43;;;10.40;99.90;;;;;;4166765;28;20029;-65
2021/10/07 02:40:18;;;;;;;7.63;3.73;;;10.40;99.90;;;;;;4174758;28;20509;-71
2021/10/07 02:42:20;;;;;;;6.13;2.90;;;10.30;99.90;;;;;;4162243;28;20025;-64
2021/10/07 02:44:21;;;;;;;5.30;2.97;;;10.40;99.90;;;;;;4158972;28;20084;-63
2021/10/07 02:46:22;;;;;;;4.43;3.27;;;10.30;99.90;;;;;;4158727;28;20030;-69
2021/10/07 02:48:23;;;;;;;9.57;3.70;;;10.30;99.90;;;;;;4172686;28;20067;-67
2021/10/07 02:50:27;;;;;;;7.33;3.33;;;10.30;99.90;;;;;;4158369;28;20477;-70
2021/10/07 02:52:28;;;;;;;8.20;3.63;;;10.30;99.90;;;;;;4158268;28;20045;-68
2021/10/07 02:54:30;;;;;;;12.80;4.27;;;10.30;99.90;;;;;;4167411;28;20040;-65
2021/10/07 02:56:31;;;;;;;6.67;3.40;;;10.30;99.90;;;;;;4157012;28;20449;-65
2021/10/07 02:58:33;;;;;;;10.03;3.70;;;10.20;99.90;;;;;;4159030;28;20045;-71
2021/10/07 03:00:35;;;;;;;5.40;2.60;;;10.20;99.90;;;;;;4157069;28;20099;-65
2021/10/07 03:02:37;;;;;;;5.60;3.40;;;10.20;99.90;;;;;;4158848;28;20025;-67
2021/10/07 03:04:38;;;;;;;7.93;3.10;;;10.20;99.90;;;;;;4188714;28;20129;-67
2021/10/07 03:06:39;;;;;;;9.57;4.23;;;10.20;99.90;;;;;;4174603;28;20416;-64
2021/10/07 03:08:40;;;;;;;7.87;3.10;;;10.20;99.90;;;;;;4158454;28;20079;-64
2021/10/07 03:10:41;;;;;;;8.33;3.80;;;10.20;99.90;;;;;;4158378;28;20029;-65
2021/10/07 03:12:43;;;;;;;7.77;3.37;;;10.20;99.90;;;;;;4159656;28;20034;-65
2021/10/07 03:14:45;;;;;;;5.43;3.30;;;10.20;99.90;;;;;;4157542;28;20747;-71
2021/10/07 03:16:46;;;;;;;3.97;2.70;;;10.20;99.90;;;;;;4158064;28;20469;-71
2021/10/07 03:18:47;;;;;;;6.60;3.07;;;10.20;99.90;;;;;;4161528;28;20559;-65
2021/10/07 03:20:48;;;;;;;4.13;2.80;;;10.20;99.90;;;;;;4158813;28;20033;-64
2021/10/07 03:22:49;;;;;;;7.60;2.83;;;10.20;99.90;;;;;;4156174;28;20037;-64
2021/10/07 03:24:51;;;;;;;6.37;3.27;;;10.20;99.90;;;;;;4161154;28;20094;-65
2021/10/07 03:26:52;;;;;;;7.33;2.90;;;10.20;99.90;;;;;;4172435;28;20079;-65
2021/10/07 03:28:53;;;;;;;11.07;3.63;;;10.20;99.90;;;;;;4166130;28;20641;-65
2021/10/07 03:30:55;;;;;;;4.43;3.13;;;10.20;99.90;;;;;;4163261;28;20554;-65
2021/10/07 03:32:56;;;;;;;6.80;2.63;;;10.20;99.90;;;;;;4174853;28;20489;-64
2021/10/07 03:34:57;;;;;;;6.90;3.40;;;10.10;99.90;;;;;;4156490;28;20083;-68
2021/10/07 03:36:58;;;;;;;10.17;3.63;;;10.20;99.90;;;;;;4172168;28;20444;-64
2021/10/07 03:38:59;;;;;;;10.50;4.50;;;10.10;99.90;;;;;;4164193;28;20034;-69
2021/10/07 03:41:00;;;;;;;5.87;2.93;;;10.10;99.90;;;;;;4157933;28;20037;-66
2021/10/07 03:43:02;;;;;;;6.20;3.33;;;10.10;99.90;;;;;;4156468;28;20033;-70
2021/10/07 03:45:05;;;;;;;7.80;3.20;;;10.10;99.90;;;;;;4157016;28;20091;-69
2021/10/07 03:47:07;;;;;;;8.30;3.73;;;10.10;99.90;;;;;;4156921;28;20025;-63
2021/10/07 03:49:08;;;;;;;8.83;3.50;;;10.00;99.90;;;;;;4164462;28;20025;-67
2021/10/07 03:51:10;;;;;;;12.13;4.10;;;10.10;99.90;;;;;;4161217;28;20084;-70
2021/10/07 03:53:11;;;;;;;9.87;3.70;;;10.00;99.90;;;;;;4156024;28;20021;-65
2021/10/07 03:55:12;;;;;;;11.57;3.80;;;10.10;99.90;;;;;;4158088;28;20149;-65
2021/10/07 03:57:13;;;;;;;7.93;3.67;;;10.00;99.90;;;;;;4174126;28;20032;-64
2021/10/07 03:59:14;;;;;;;7.77;3.73;;;10.00;99.90;;;;;;4157277;28;20135;-66
2021/10/07 04:01:15;;;;;;;4.90;3.07;;;10.00;99.90;;;;;;4166094;28;20032;-64
2021/10/07 04:03:17;;;;;;;4.73;3.17;;;10.00;99.90;;;;;;4162771;28;20049;-63
2021/10/07 04:05:18;;;;;;;9.00;3.70;;;9.90;99.90;;;;;;4164114;28;20091;-65
2021/10/07 04:07:19;;;;;;;8.00;3.10;;;9.90;99.90;;;;;;4171897;28;20042;-65
2021/10/07 04:09:21;;;;;;;7.20;3.27;;;9.90;99.90;;;;;;4157620;28;20030;-66
2021/10/07 04:11:23;;;;;;;8.03;2.83;;;9.90;99.90;;;;;;4156337;28;20083;-65
2021/10/07 04:13:24;;;;;;;6.53;2.90;;;9.80;99.90;;;;;;4156010;28;20029;-67
2021/10/07 04:15:26;;;;;;;4.40;2.90;;;9.90;99.90;;;;;;4164036;28;20514;-69
2021/10/07 04:17:27;;;;;;;7.70;3.17;;;9.80;99.90;;;;;;4166565;28;20047;-66
2021/10/07 04:19:28;;;;;;;6.83;3.47;;;9.80;99.90;;;;;;4203378;28;20915;-67
2021/10/07 04:21:29;;;;;;;6.40;2.77;;;9.80;99.90;;;;;;4172995;28;20055;-66
2021/10/07 04:23:30;;;;;;;5.77;2.63;;;9.80;99.90;;;;;;4172581;28;20049;-66
2021/10/07 04:25:32;;;;;;;7.70;2.77;;;9.70;99.90;;;;;;4164098;28;20037;-65
2021/10/07 04:27:33;;;;;;;13.87;3.80;;;9.70;99.90;;;;;;4171531;28;20082;-69
2021/10/07 04:29:35;;;;;;;7.20;3.33;;;9.70;99.90;;;;;;4173590;28;20375;-64
2021/10/07 04:31:37;;;;;;;3.63;2.27;;;9.80;99.90;;;;;;4171754;28;20033;-69
2021/10/07 04:33:38;;;;;;;5.53;3.63;;;9.70;99.90;;;;;;4157654;28;20095;-67
2021/10/07 04:35:40;;;;;;;7.57;2.93;;;9.70;99.90;;;;;;4170767;28;20041;-65
2021/10/07 04:37:41;;;;;;;6.57;3.27;;;9.70;99.90;;;;;;4179847;28;20091;-65
2021/10/07 04:39:43;;;;;;;5.27;2.90;;;9.70;99.90;;;;;;4169491;28;20065;-71
2021/10/07 04:41:44;;;;;;;6.57;2.80;;;9.70;99.90;;;;;;4159294;28;20094;-69
2021/10/07 04:43:45;;;;;;;6.87;3.50;;;9.70;99.90;;;;;;4170113;28;20099;-71
2021/10/07 04:45:46;;;;;;;6.73;3.47;;;9.70;99.90;;;;;;4179191;28;20040;-74
2021/10/07 04:47:47;;;;;;;7.77;2.57;;;9.70;99.90;;;;;;4170960;28;21008;-67
2021/10/07 04:49:48;;;;;;;8.13;3.40;;;9.80;99.90;;;;;;4169091;28;20131;-67
2021/10/07 04:51:50;;;;;;;6.87;2.57;;;9.70;99.90;;;;;;4171639;28;20033;-68
2021/10/07 04:53:51;;;;;;;7.77;2.77;;;9.80;99.90;;;;;;4171616;28;20093;-65
2021/10/07 04:55:55;;;;;;;12.33;3.37;;;9.70;99.90;;;;;;4171507;28;20049;-67
2021/10/07 04:57:56;;;;;;;7.97;3.23;;;9.70;99.90;;;;;;4171017;28;20021;-67
2021/10/07 04:59:57;;;;;;;11.43;3.20;;;9.70;99.90;;;;;;4159955;28;20111;-67
2021/10/07 05:01:58;;;;;;;6.57;3.20;;;9.70;99.90;;;;;;4154687;28;20064;-65
2021/10/07 05:03:59;;;;;;;9.47;2.63;;;9.70;99.90;;;;;;4156310;28;20029;-66
2021/10/07 05:06:01;;;;;;;7.67;2.83;;;9.70;99.90;;;;;;4154737;28;20119;-70
2021/10/07 05:08:02;;;;;;;10.23;2.97;;;9.60;99.90;;;;;;4156297;28;20091;-72
2021/10/07 05:10:03;;;;;;;16.47;2.93;;;9.60;99.90;;;;;;4155362;28;20123;-65
2021/10/07 05:12:06;;;;;;;8.10;3.30;;;9.60;99.90;;;;;;4156497;28;20138;-71
2021/10/07 05:14:07;;;;;;;10.20;3.20;;;9.60;99.90;;;;;;4155109;28;20091;-65
2021/10/07 05:16:08;;;;;;;4.73;2.77;;;9.60;99.90;;;;;;4155505;28;20068;-66
2021/10/07 05:18:09;;;;;;;12.40;2.53;;;9.60;99.90;;;;;;4155376;28;20037;-66
2021/10/07 05:20:11;;;;;;;15.63;2.80;;;9.60;99.90;;;;;;4155291;28;20118;-68
2021/10/07 05:22:12;;;;;;;8.80;2.97;;;9.60;99.90;;;;;;4155381;28;20084;-67
2021/10/07 05:24:13;;;;;;;8.07;2.80;;;9.60;99.90;;;;;;4154833;28;20029;-65
2021/10/07 05:26:15;;;;;;;9.07;3.00;;;9.60;99.90;;;;;;4157400;28;20505;-68
2021/10/07 05:28:16;;;;;;;7.83;2.40;;;9.60;99.90;;;;;;4200783;28;20101;-65
2021/10/07 05:30:17;;;;;;;9.60;2.73;;;9.70;99.90;;;;;;4172597;28;20013;-69
2021/10/07 05:32:19;;;;;;;5.93;2.50;;;9.70;99.90;;;;;;4171494;28;20029;-63
2021/10/07 05:34:20;;;;;;;8.30;2.60;;;9.70;99.90;;;;;;4173190;28;20037;-63
2021/10/07 05:36:22;;;;;;;6.70;2.70;;;9.80;99.90;;;;;;4182898;28;20041;-65
2021/10/07 05:38:23;;;;;;;8.23;3.40;;;9.90;99.90;;;;;;4192363;28;20025;-63
2021/10/07 05:40:24;;;;;;;15.23;2.80;;;9.90;99.90;;;;;;4191302;28;20033;-65
2021/10/07 05:42:27;;;;;;;7.63;2.90;;;10.00;99.90;;;;;;4192661;28;20824;-63
2021/10/07 05:44:28;;;;;;;11.43;2.63;;;10.00;99.90;;;;;;4188278;28;20082;-65
2021/10/07 05:46:29;;;;;;;6.90;3.03;;;10.00;99.90;;;;;;4191580;28;20049;-64
2021/10/07 05:48:30;;;;;;;15.27;2.73;;;10.00;99.90;;;;;;4191273;28;20431;-67
2021/10/07 05:50:31;;;;;;;6.83;2.50;;;9.90;99.90;;;;;;4190404;28;20668;-67
2021/10/07 05:52:33;;;;;;;5.83;3.57;;;9.90;99.90;;;;;;4192043;28;20082;-69
2021/10/07 05:54:34;;;;;;;9.23;2.57;;;10.00;99.90;;;;;;4186843;28;20434;-67
2021/10/07 05:56:35;;;;;;;13.37;3.97;;;10.00;99.90;;;;;;4192091;28;20053;-64
2021/10/07 05:58:36;;;;;;;15.07;3.43;;;10.00;99.90;;;;;;4190165;28;20431;-69
2021/10/07 06:00:37;;;;;;;5.83;2.50;;;10.10;99.90;;;;;;4192143;28;20463;-68
2021/10/07 06:02:39;;;;;;;9.53;3.00;;;10.20;99.90;;;;;;4188484;28;20077;-66
2021/10/07 06:04:40;;;;;;;13.80;3.30;;;10.20;99.80;;;;;;4180543;28;20033;-66
2021/10/07 06:06:41;;;;;;;15.57;4.10;;;10.30;99.70;;;;;;4172426;28;20572;-73
2021/10/07 06:08:42;;;;;;;8.47;3.70;;;10.30;99.70;;;;;;4182996;28;20780;-70
2021/10/07 06:10:43;;;;;;;7.33;3.13;;;10.40;99.70;;;;;;4170640;28;20037;-68
2021/10/07 06:12:45;;;;;;;6.43;2.37;;;10.50;99.40;;;;;;4175551;28;20037;-69
2021/10/07 06:14:46;;;;;;;5.20;2.17;;;10.50;99.00;;;;;;4174123;28;20095;-67
2021/10/07 06:16:50;;;;;;;9.83;3.27;;;10.50;99.20;;;;;;4177394;28;20037;-67
2021/10/07 06:18:51;;;;;;;9.13;2.57;;;10.60;99.20;;;;;;4189625;28;20154;-69
2021/10/07 06:20:52;;;;;;;3.63;1.90;;;10.70;99.20;;;;;;4172865;28;20110;-68
2021/10/07 06:22:53;;;;;;;9.20;2.00;;;10.80;99.10;;;;;;4174810;28;20428;-68
2021/10/07 06:24:55;;;;;;;8.03;2.27;;;10.90;99.00;;;;;;4174088;28;20090;-67
2021/10/07 06:26:57;;;;;;;9.77;2.40;;;11.00;98.90;;;;;;4175399;28;20025;-68
2021/10/07 06:28:58;;;;;;;6.40;1.97;;;11.10;98.60;;;;;;4187609;28;20028;-67
2021/10/07 06:30:59;;;;;;;8.63;2.30;;;11.10;98.50;;;;;;4191751;28;20106;-65
2021/10/07 06:33:01;;;;;;;8.17;2.00;;;11.20;98.20;;;;;;4189404;28;20044;-65
2021/10/07 06:35:04;;;;;;;13.47;2.03;;;11.20;98.20;;;;;;4191947;28;20486;-66
2021/10/07 06:37:05;;;;;;;6.93;2.03;;;11.20;98.10;;;;;;4176395;28;20055;-67
2021/10/07 06:39:07;;;;;;;11.10;2.67;;;11.10;98.00;;;;;;4165644;28;20032;-68
2021/10/07 06:41:08;;;;;;;8.90;2.80;;;11.20;98.10;;;;;;4172641;28;20056;-66
2021/10/07 06:43:09;;;;;;;5.80;2.50;;;11.30;98.10;;;;;;4174503;28;20037;-68
2021/10/07 06:45:13;;;;;;;4.43;1.97;;;11.30;98.10;;;;;;4184537;28;20032;-65
2021/10/07 06:47:14;;;;;;;6.07;2.10;;;11.30;98.00;;;;;;4187005;28;20046;-65
2021/10/07 06:49:15;;;;;;;7.70;2.10;;;11.30;97.90;;;;;;4169976;28;20471;-65
2021/10/07 06:51:17;;;;;;;12.20;2.27;;;11.30;97.70;;;;;;4177872;28;20106;-67
2021/10/07 06:53:18;;;;;;;9.30;2.07;;;11.30;97.70;;;;;;4174152;28;20041;-66
2021/10/07 06:55:21;;;;;;;10.90;2.33;;;11.30;97.70;;;;;;4173637;28;20107;-71
2021/10/07 06:57:22;;;;;;;5.00;1.93;;;11.30;97.60;;;;;;4189274;28;20020;-70
2021/10/07 06:59:24;;;;;;;5.50;1.80;;;11.30;97.60;;;;;;4188015;28;20054;-65
2021/10/07 07:01:27;;;;;;;10.13;2.03;;;11.30;97.40;;;;;;4190387;28;20581;-66
2021/10/07 07:03:28;;;;;;;9.83;1.70;;;11.40;97.60;;;;;;4188789;28;20036;-71
2021/10/07 07:05:29;;;;;;;14.73;2.80;;;11.40;97.50;;;;;;4176185;28;20052;-66
2021/10/07 07:07:31;;;;;;;12.77;1.83;;;11.40;97.40;;;;;;4173182;28;20637;-67
2021/10/07 07:09:32;;;;;;;7.70;2.03;;;11.50;97.40;;;;;;4175241;28;20037;-66
2021/10/07 07:11:33;;;;;;;11.00;3.13;;;11.60;97.40;;;;;;4173324;28;20045;-66
2021/10/07 07:13:34;;;;;;;14.07;2.40;;;11.70;97.30;;;;;;4175522;28;20110;-68
2021/10/07 07:15:35;;;;;;;7.90;1.77;;;11.80;97.20;;;;;;4190081;28;20040;-73
2021/10/07 07:17:37;;;;;;;9.10;2.27;;;11.80;97.10;;;;;;4182409;28;20097;-71
2021/10/07 07:19:38;;;;;;;7.47;1.57;;;11.90;97.00;;;;;;4173622;28;20029;-66
2021/10/07 07:21:39;;;;;;;4.73;1.93;;;11.90;97.00;;;;;;4183462;28;20066;-68
2021/10/07 07:23:41;;;;;;;7.20;1.77;;;12.00;96.90;;;;;;4190414;28;20534;-73
2021/10/07 07:25:42;;;;;;;15.70;2.37;;;12.00;96.80;;;;;;4189825;28;20494;-67
2021/10/07 07:27:45;;;;;;;17.60;2.20;;;12.00;96.80;;;;;;4190475;28;20032;-70
2021/10/07 07:29:46;;;;;;;8.77;2.27;;;12.10;96.90;;;;;;4188929;28;20039;-74
2021/10/07 07:31:47;;;;;;;8.23;1.83;;;12.00;96.70;;;;;;4173405;28;20107;-67
2021/10/07 07:33:49;;;;;;;14.67;2.53;;;12.10;96.80;;;;;;4162949;28;20028;-71
2021/10/07 07:35:50;;;;;;;6.83;1.83;;;12.10;96.60;;;;;;4191212;28;20407;-67
2021/10/07 07:37:51;;;;;;;6.83;1.90;;;12.10;96.70;;;;;;4182493;28;20071;-71
2021/10/07 07:39:52;;;;;;;6.33;2.10;;;12.10;96.90;;;;;;4174790;28;20781;-66
2021/10/07 07:41:54;;;;;;;9.13;2.00;;;12.10;96.70;;;;;;4172901;28;20075;-68
2021/10/07 07:43:56;;;;;;;6.57;1.87;;;12.10;96.70;;;;;;4174032;28;20025;-65
2021/10/07 07:45:58;;;;;;;9.03;2.07;;;12.10;96.70;;;;;;4172915;28;20013;-67
2021/10/07 07:47:59;;;;;;;10.60;2.10;;;12.20;96.80;;;;;;4162237;28;20057;-65
2021/10/07 07:50:00;;;;;;;9.93;2.40;;;12.20;96.80;;;;;;4156252;28;21334;-70
2021/10/07 07:52:01;;;;;;;11.07;2.10;;;12.30;96.90;;;;;;4167472;28;20028;-66
2021/10/07 07:54:02;;;;;;;8.37;2.40;;;12.30;96.50;;;;;;4173028;28;20562;-66
2021/10/07 07:56:04;;;;;;;5.93;2.63;;;12.30;96.60;;;;;;4180670;28;20052;-65
2021/10/07 07:58:05;;;;;;;13.77;2.80;;;12.30;96.60;;;;;;4173072;28;20029;-69
2021/10/07 08:00:07;;;;;;;6.83;1.80;;;12.40;96.40;;;;;;4170500;28;20057;-66
2021/10/07 08:02:09;;;;;;;8.27;1.90;;;12.40;96.30;;;;;;4172408;28;20589;-68
2021/10/07 08:04:10;;;;;;;5.03;1.93;;;12.40;96.30;;;;;;4172152;28;20094;-65
2021/10/07 08:06:11;;;;;;;15.67;2.97;;;12.60;96.40;;;;;;4189203;28;20028;-65
2021/10/07 08:08:12;;;;;;;10.63;2.20;;;12.60;96.10;;;;;;4188466;28;20090;-68
2021/10/07 08:10:13;;;;;;;13.33;2.10;;;12.60;96.20;;;;;;4190638;28;20097;-68
2021/10/07 08:12:16;;;;;;;12.13;2.60;;;12.70;96.20;;;;;;4176264;28;20036;-65
2021/10/07 08:14:17;;;;;;;9.77;1.73;;;12.80;96.00;;;;;;4173948;28;20025;-65
2021/10/07 08:16:18;;;;;;;8.10;1.93;;;12.70;95.90;;;;;;4172830;28;20090;-66
2021/10/07 08:18:20;;;;;;;11.80;2.00;;;12.80;96.00;;;;;;4173457;28;20029;-67
2021/10/07 08:20:22;;;;;;;10.67;2.27;;;13.00;96.10;;;;;;4172307;28;20114;-65
2021/10/07 08:22:23;;;;;;;11.90;1.67;;;13.10;96.10;;;;;;4171430;28;20547;-65
2021/10/07 08:24:25;;;;;;;4.93;2.20;;;13.10;95.70;;;;;;4172338;28;20351;-67
2021/10/07 08:26:26;;;;;;;12.23;3.57;;;13.20;95.60;;;;;;4171682;28;20464;-69
2021/10/07 08:28:27;;;;;;;10.47;1.77;;;13.20;95.60;;;;;;4173222;28;20091;-69
2021/10/07 08:30:28;;;;;;;11.00;1.60;;;13.20;95.60;;;;;;4182047;28;20037;-71
2021/10/07 08:32:29;;;;;;;9.87;2.40;;;13.20;95.50;;;;;;4184169;28;20036;-68
2021/10/07 08:34:30;;;;;;;6.53;2.40;;;13.30;95.50;;;;;;4187927;28;20078;-68
2021/10/07 08:36:33;;;;;;;18.07;2.80;;;13.40;95.60;;;;;;4188889;28;20865;-67
2021/10/07 08:38:34;;;;;;;11.07;2.10;;;13.50;95.40;;;;;;4187718;28;20021;-68
2021/10/07 08:40:36;;;;;;;6.70;1.70;;;13.60;95.10;;;;;;4164091;28;20489;-68
2021/10/07 08:42:40;;;;;;;11.13;1.93;;;13.60;95.10;;;;;;4186322;28;20032;-69
2021/10/07 08:44:44;;;;;;;13.47;2.00;;;13.70;95.20;;;;;;4189437;28;20033;-68
2021/10/07 08:46:46;;;;;;;15.47;1.87;;;13.80;95.20;;;;;;4188160;28;20440;-71
2021/10/07 08:48:48;;;;;;;9.87;2.20;;;13.80;94.90;;;;;;4188223;28;20024;-68
2021/10/07 08:50:49;;;;;;;8.80;1.50;;;13.80;94.80;;;;;;4188322;28;20048;-68
2021/10/07 08:52:50;;;;;;;10.53;2.30;;;13.80;94.60;;;;;;4184445;28;20071;-67
2021/10/07 08:54:51;;;;;;;11.83;2.20;;;13.70;94.60;;;;;;4174828;28;20041;-68
2021/10/07 08:56:52;;;;;;;6.43;1.47;;;13.70;94.50;;;;;;4183305;28;20032;-68
2021/10/07 08:58:54;;;;;;;10.90;1.93;;;13.70;94.50;;;;;;4188739;28;20090;-68
2021/10/07 09:00:55;;;;;;;11.47;1.67;;;13.80;94.50;;;;;;4188389;28;20049;-65
2021/10/07 09:03:14;;;;;;;8.27;1.83;;;13.90;94.40;;;;;;4189419;28;20071;-64
2021/10/07 09:05:17;;;;;;;11.60;1.63;;;13.90;94.20;;;;;;4188459;28;20113;-64
2021/10/07 09:07:19;;;;;;;11.80;2.00;;;13.90;94.50;;;;;;4187172;28;20033;-65
2021/10/07 09:09:22;;;;;;;8.57;1.53;;;14.00;94.50;;;;;;4188331;28;20598;-67
2021/10/07 09:11:30;;;;;;;5.87;1.07;;;14.30;94.40;;;;;;4186134;28;20040;-65
2021/10/07 09:13:31;;;;;;;10.87;2.43;;;14.50;94.20;;;;;;4188383;28;20322;-65
2021/10/07 09:15:32;;;;;;;14.97;1.60;;;14.40;93.90;;;;;;4189744;28;20515;-66
2021/10/07 09:17:33;;;;;;;14.23;1.83;;;14.30;93.80;;;;;;4188423;28;20033;-65
2021/10/07 09:19:40;;;;;;;25.07;3.20;;;14.20;93.90;;;;;;4188583;28;20044;-65
2021/10/07 09:21:42;;;;;;;11.17;1.73;;;14.10;93.80;;;;;;4185840;28;20036;-65
2021/10/07 09:23:43;;;;;;;12.00;1.70;;;14.00;93.80;;;;;;4188390;28;20048;-70
2021/10/07 09:25:59;;;;;;;17.13;1.40;;;13.90;94.00;;;;;;4187760;28;20063;-64
2021/10/07 09:28:03;;;;;;;17.17;1.67;;;13.80;94.20;;;;;;4181906;28;20082;-65
2021/10/07 09:30:10;;;;;;;8.27;1.33;;;13.80;94.20;;;;;;4166355;28;20103;-67
2021/10/07 09:32:12;;;;;;;6.90;1.43;;;13.70;94.00;;;;;;4155397;28;20088;-67
2021/10/07 09:34:13;;;;;;;18.47;1.77;;;13.70;94.30;;;;;;4154407;28;20025;-68
2021/10/07 09:36:19;;;;;;;12.80;2.37;;;13.70;94.20;;;;;;4155780;28;20076;-68
2021/10/07 09:38:21;;;;;;;17.17;2.03;;;13.70;94.40;;;;;;4155345;28;20134;-70
2021/10/07 09:40:26;;;;;;;6.13;1.60;;;13.80;94.10;;;;;;4166758;28;20041;-73
2021/10/07 09:42:36;;;;;;;9.77;1.70;;;13.80;94.30;;;;;;4165876;28;20051;-66
2021/10/07 09:44:37;;;;;;;9.40;1.90;;;13.80;94.10;;;;;;4169989;28;20054;-67
2021/10/07 09:46:46;;;;;;;10.20;1.47;;;13.70;94.00;;;;;;4186055;28;20033;-65
2021/10/07 09:48:50;;;;;;;4.20;1.43;;;13.70;94.30;;;;;;4167689;28;20420;-70
2021/10/07 09:50:51;;;;;;;4.53;1.27;;;13.70;94.30;;;;;;4156924;28;20041;-70
2021/10/07 09:53:03;;;;;;;7.27;1.50;;;13.80;94.30;;;;;;4159366;28;20033;-67
2021/10/07 09:55:13;;;;;;;12.03;1.27;;;13.80;93.70;;;;;;4155401;28;20398;-71
2021/10/07 09:57:14;;;;;;;7.20;1.23;;;13.70;93.90;;;;;;4155026;28;20045;-68
2021/10/07 09:59:16;;;;;;;12.07;1.53;;;13.70;94.00;;;;;;4157297;28;20034;-69
2021/10/07 10:01:17;;;;;;;9.47;1.40;;;13.70;94.00;;;;;;4162467;28;20048;-69
2021/10/07 10:03:21;;;;;;;8.17;1.27;;;13.70;94.00;;;;;;4169951;28;20751;-67
2021/10/07 10:05:23;;;;;;;8.30;1.30;;;13.80;94.00;;;;;;4155192;28;20165;-68
2021/10/07 10:07:24;;;;;;;11.77;1.33;;;13.80;93.80;;;;;;4158681;28;20091;-67
2021/10/07 10:09:27;;;;;;;9.13;1.13;;;13.80;93.80;;;;;;4153408;28;20045;-66
2021/10/07 10:11:28;;;;;;;7.47;1.80;;;13.80;93.70;;;;;;4156188;28;20030;-67
2021/10/07 10:13:29;;;;;;;11.30;1.90;;;13.80;93.80;;;;;;4154255;28;20042;-67
2021/10/07 10:15:31;;;;;;;11.43;1.70;;;13.90;93.70;;;;;;4156249;28;20099;-69
2021/10/07 10:17:34;;;;;;;13.93;1.40;;;13.90;93.70;;;;;;4155659;28;20045;-71
2021/10/07 10:19:35;;;;;;;8.53;1.50;;;13.90;93.70;;;;;;4155624;28;20486;-69
2021/10/07 10:21:39;;;;;;;4.97;1.73;;;14.00;93.60;;;;;;4154551;28;20037;-70
2021/10/07 10:23:42;;;;;;;10.77;1.33;;;14.00;93.40;;;;;;4158193;28;20366;-67
2021/10/07 10:25:55;;;;;;;5.00;1.53;;;14.00;93.40;;;;;;4174349;28;20351;-67
2021/10/07 10:27:59;;;;;;;3.90;1.00;;;14.10;93.60;;;;;;4174608;28;20123;-66
2021/10/07 10:30:25;;;;;;;8.90;1.73;;;14.20;93.40;;;;;;4174472;28;20037;-66
2021/10/07 10:32:39;;;;;;;7.97;1.40;;;14.40;93.30;;;;;;4169687;28;20044;-67
2021/10/07 10:34:45;;;;;;;8.70;1.50;;;14.50;93.10;;;;;;4173957;28;20033;-69
2021/10/07 10:36:51;;;;;;;4.33;1.80;;;14.60;92.90;;;;;;4175425;28;20074;-68
2021/10/07 10:39:19;;;;;;;4.10;1.03;;;14.70;92.90;;;;;;4173927;28;20515;-74